sensor_id;sensor_type;location;lat;lon;timestamp;P1;durP1;ratioP1;P2;durP2;ratioP2
65358;SDS011;52491;45.900;6.346;2023-11-22T00:00:07;3.38;;;3.00;;
65358;SDS011;52491;45.900;6.346;2023-11-22T00:02:33;2.80;;;2.15;;
65358;SDS011;52491;45.900;6.346;2023-11-22T00:04:59;4.18;;;2.88;;
65358;SDS011;52491;45.900;6.346;2023-11-22T00:07:25;2.40;;;2.20;;
65358;SDS011;52491;45.900;6.346;2023-11-22T00:09:54;3.13;;;2.25;;
65358;SDS011;52491;45.900;6.346;2023-11-22T00:12:20;3.63;;;2.40;;
65358;SDS011;52491;45.900;6.346;2023-11-22T00:14:46;3.25;;;2.50;;
65358;SDS011;52491;45.900;6.346;2023-11-22T00:17:12;4.03;;;2.92;;
65358;SDS011;52491;45.900;6.346;2023-11-22T00:19:38;3.60;;;2.38;;
65358;SDS011;52491;45.900;6.346;2023-11-22T00:22:04;3.20;;;2.60;;
65358;SDS011;52491;45.900;6.346;2023-11-22T00:24:38;3.80;;;2.20;;
65358;SDS011;52491;45.900;6.346;2023-11-22T00:27:04;2.10;;;1.90;;
65358;SDS011;52491;45.900;6.346;2023-11-22T00:29:30;3.10;;;2.58;;
65358;SDS011;52491;45.900;6.346;2023-11-22T00:31:55;2.40;;;2.05;;
65358;SDS011;52491;45.900;6.346;2023-11-22T00:34:21;3.60;;;2.38;;
65358;SDS011;52491;45.900;6.346;2023-11-22T00:36:48;3.17;;;2.33;;
65358;SDS011;52491;45.900;6.346;2023-11-22T00:39:14;3.75;;;2.80;;
65358;SDS011;52491;45.900;6.346;2023-11-22T00:41:39;3.33;;;2.35;;
65358;SDS011;52491;45.900;6.346;2023-11-22T00:44:05;3.78;;;2.28;;
65358;SDS011;52491;45.900;6.346;2023-11-22T00:46:34;2.20;;;2.00;;
65358;SDS011;52491;45.900;6.346;2023-11-22T00:48:59;2.08;;;1.65;;
65358;SDS011;52491;45.900;6.346;2023-11-22T00:51:25;2.15;;;1.92;;
65358;SDS011;52491;45.900;6.346;2023-11-22T00:53:51;4.32;;;2.33;;
65358;SDS011;52491;45.900;6.346;2023-11-22T00:56:17;2.42;;;1.88;;
65358;SDS011;52491;45.900;6.346;2023-11-22T00:58:42;2.58;;;2.00;;
65358;SDS011;52491;45.900;6.346;2023-11-22T01:01:08;2.40;;;1.60;;
65358;SDS011;52491;45.900;6.346;2023-11-22T01:03:33;3.47;;;2.20;;
65358;SDS011;52491;45.900;6.346;2023-11-22T01:06:00;2.40;;;2.15;;
65358;SDS011;52491;45.900;6.346;2023-11-22T01:08:26;3.75;;;2.08;;
65358;SDS011;52491;45.900;6.346;2023-11-22T01:10:52;2.33;;;1.92;;
65358;SDS011;52491;45.900;6.346;2023-11-22T01:13:17;2.92;;;1.80;;
65358;SDS011;52491;45.900;6.346;2023-11-22T01:15:43;2.80;;;1.92;;
65358;SDS011;52491;45.900;6.346;2023-11-22T01:18:09;1.60;;;1.42;;
65358;SDS011;52491;45.900;6.346;2023-11-22T01:20:35;2.20;;;1.73;;
65358;SDS011;52491;45.900;6.346;2023-11-22T01:23:01;2.88;;;1.90;;
65358;SDS011;52491;45.900;6.346;2023-11-22T01:25:26;2.22;;;1.85;;
65358;SDS011;52491;45.900;6.346;2023-11-22T01:27:53;2.15;;;1.88;;
65358;SDS011;52491;45.900;6.346;2023-11-22T01:30:19;2.45;;;1.70;;
65358;SDS011;52491;45.900;6.346;2023-11-22T01:32:44;2.28;;;1.63;;
65358;SDS011;52491;45.900;6.346;2023-11-22T01:35:10;2.55;;;1.73;;
65358;SDS011;52491;45.900;6.346;2023-11-22T01:37:35;2.90;;;1.48;;
65358;SDS011;52491;45.900;6.346;2023-11-22T01:40:02;2.10;;;1.67;;
65358;SDS011;52491;45.900;6.346;2023-11-22T01:42:29;2.10;;;1.85;;
65358;SDS011;52491;45.900;6.346;2023-11-22T01:44:54;1.75;;;1.65;;
65358;SDS011;52491;45.900;6.346;2023-11-22T01:47:20;2.05;;;1.42;;
65358;SDS011;52491;45.900;6.346;2023-11-22T01:49:46;3.00;;;1.55;;
65358;SDS011;52491;45.900;6.346;2023-11-22T01:52:13;2.22;;;1.50;;
65358;SDS011;52491;45.900;6.346;2023-11-22T01:54:39;2.67;;;1.75;;
65358;SDS011;52491;45.900;6.346;2023-11-22T01:57:07;1.95;;;1.42;;
65358;SDS011;52491;45.900;6.346;2023-11-22T01:59:34;1.75;;;1.63;;
65358;SDS011;52491;45.900;6.346;2023-11-22T02:02:00;2.03;;;1.55;;
65358;SDS011;52491;45.900;6.346;2023-11-22T02:04:26;3.00;;;1.83;;
65358;SDS011;52491;45.900;6.346;2023-11-22T02:06:52;2.10;;;1.30;;
65358;SDS011;52491;45.900;6.346;2023-11-22T02:09:18;1.50;;;1.23;;
65358;SDS011;52491;45.900;6.346;2023-11-22T02:11:44;1.33;;;1.10;;
65358;SDS011;52491;45.900;6.346;2023-11-22T02:14:14;1.73;;;1.52;;
65358;SDS011;52491;45.900;6.346;2023-11-22T02:16:40;1.40;;;1.20;;
65358;SDS011;52491;45.900;6.346;2023-11-22T02:19:06;1.70;;;1.30;;
65358;SDS011;52491;45.900;6.346;2023-11-22T02:21:38;1.70;;;1.40;;
65358;SDS011;52491;45.900;6.346;2023-11-22T02:24:04;1.65;;;1.25;;
65358;SDS011;52491;45.900;6.346;2023-11-22T02:26:30;1.23;;;1.05;;
65358;SDS011;52491;45.900;6.346;2023-11-22T02:28:56;1.45;;;1.25;;
65358;SDS011;52491;45.900;6.346;2023-11-22T02:31:21;1.48;;;1.00;;
65358;SDS011;52491;45.900;6.346;2023-11-22T02:33:49;2.05;;;1.40;;
65358;SDS011;52491;45.900;6.346;2023-11-22T02:36:14;1.10;;;1.00;;
65358;SDS011;52491;45.900;6.346;2023-11-22T02:38:40;2.40;;;1.23;;
65358;SDS011;52491;45.900;6.346;2023-11-22T02:41:06;2.03;;;1.40;;
65358;SDS011;52491;45.900;6.346;2023-11-22T02:43:31;1.33;;;1.00;;
65358;SDS011;52491;45.900;6.346;2023-11-22T02:45:57;1.70;;;1.25;;
65358;SDS011;52491;45.900;6.346;2023-11-22T02:48:22;3.20;;;1.75;;
65358;SDS011;52491;45.900;6.346;2023-11-22T02:50:48;1.20;;;1.10;;
65358;SDS011;52491;45.900;6.346;2023-11-22T02:53:14;1.35;;;0.98;;
65358;SDS011;52491;45.900;6.346;2023-11-22T02:55:40;1.45;;;1.10;;
65358;SDS011;52491;45.900;6.346;2023-11-22T02:58:06;1.85;;;1.17;;
65358;SDS011;52491;45.900;6.346;2023-11-22T03:00:32;2.22;;;1.15;;
65358;SDS011;52491;45.900;6.346;2023-11-22T03:02:59;2.28;;;1.27;;
65358;SDS011;52491;45.900;6.346;2023-11-22T03:05:26;1.85;;;1.08;;
65358;SDS011;52491;45.900;6.346;2023-11-22T03:07:51;0.85;;;0.85;;
65358;SDS011;52491;45.900;6.346;2023-11-22T03:10:17;1.45;;;1.13;;
65358;SDS011;52491;45.900;6.346;2023-11-22T03:12:43;1.10;;;1.00;;
65358;SDS011;52491;45.900;6.346;2023-11-22T03:15:09;2.28;;;1.20;;
65358;SDS011;52491;45.900;6.346;2023-11-22T03:17:36;1.08;;;0.95;;
65358;SDS011;52491;45.900;6.346;2023-11-22T03:20:04;2.22;;;1.60;;
65358;SDS011;52491;45.900;6.346;2023-11-22T03:22:34;1.10;;;1.00;;
65358;SDS011;52491;45.900;6.346;2023-11-22T03:25:01;1.85;;;1.02;;
65358;SDS011;52491;45.900;6.346;2023-11-22T03:27:27;1.75;;;1.10;;
65358;SDS011;52491;45.900;6.346;2023-11-22T03:29:53;0.90;;;0.80;;
65358;SDS011;52491;45.900;6.346;2023-11-22T03:32:18;1.35;;;0.90;;
65358;SDS011;52491;45.900;6.346;2023-11-22T03:34:44;1.05;;;0.95;;
65358;SDS011;52491;45.900;6.346;2023-11-22T03:37:09;1.10;;;0.77;;
65358;SDS011;52491;45.900;6.346;2023-11-22T03:39:36;1.30;;;0.70;;
65358;SDS011;52491;45.900;6.346;2023-11-22T03:42:01;1.35;;;1.00;;
65358;SDS011;52491;45.900;6.346;2023-11-22T03:44:27;1.23;;;0.82;;
65358;SDS011;52491;45.900;6.346;2023-11-22T03:46:53;1.23;;;1.05;;
65358;SDS011;52491;45.900;6.346;2023-11-22T03:49:19;0.98;;;0.90;;
65358;SDS011;52491;45.900;6.346;2023-11-22T03:51:44;3.13;;;0.82;;
65358;SDS011;52491;45.900;6.346;2023-11-22T03:54:11;1.67;;;0.95;;
65358;SDS011;52491;45.900;6.346;2023-11-22T03:56:37;1.50;;;0.82;;
65358;SDS011;52491;45.900;6.346;2023-11-22T03:59:03;1.20;;;1.10;;
65358;SDS011;52491;45.900;6.346;2023-11-22T04:01:29;0.70;;;0.70;;
65358;SDS011;52491;45.900;6.346;2023-11-22T04:03:54;1.20;;;0.88;;
65358;SDS011;52491;45.900;6.346;2023-11-22T04:06:20;1.00;;;0.90;;
65358;SDS011;52491;45.900;6.346;2023-11-22T04:08:46;1.13;;;0.98;;
65358;SDS011;52491;45.900;6.346;2023-11-22T04:11:12;1.02;;;0.93;;
65358;SDS011;52491;45.900;6.346;2023-11-22T04:13:38;0.88;;;0.80;;
65358;SDS011;52491;45.900;6.346;2023-11-22T04:16:04;1.58;;;1.00;;
65358;SDS011;52491;45.900;6.346;2023-11-22T04:18:33;1.08;;;0.98;;
65358;SDS011;52491;45.900;6.346;2023-11-22T04:21:08;1.30;;;0.98;;
65358;SDS011;52491;45.900;6.346;2023-11-22T04:23:34;0.90;;;0.85;;
65358;SDS011;52491;45.900;6.346;2023-11-22T04:26:00;1.58;;;0.85;;
65358;SDS011;52491;45.900;6.346;2023-11-22T04:28:26;0.85;;;0.85;;
65358;SDS011;52491;45.900;6.346;2023-11-22T04:30:53;1.05;;;0.93;;
65358;SDS011;52491;45.900;6.346;2023-11-22T04:33:19;1.00;;;0.80;;
65358;SDS011;52491;45.900;6.346;2023-11-22T04:35:45;1.35;;;0.80;;
65358;SDS011;52491;45.900;6.346;2023-11-22T04:38:12;0.75;;;0.55;;
65358;SDS011;52491;45.900;6.346;2023-11-22T04:40:37;0.93;;;0.82;;
65358;SDS011;52491;45.900;6.346;2023-11-22T04:43:03;0.75;;;0.75;;
65358;SDS011;52491;45.900;6.346;2023-11-22T04:45:28;1.10;;;0.98;;
65358;SDS011;52491;45.900;6.346;2023-11-22T04:47:54;0.80;;;0.80;;
65358;SDS011;52491;45.900;6.346;2023-11-22T04:50:22;1.20;;;0.82;;
65358;SDS011;52491;45.900;6.346;2023-11-22T04:52:49;1.38;;;0.90;;
65358;SDS011;52491;45.900;6.346;2023-11-22T04:55:15;0.95;;;0.85;;
65358;SDS011;52491;45.900;6.346;2023-11-22T04:57:41;0.70;;;0.70;;
65358;SDS011;52491;45.900;6.346;2023-11-22T05:00:07;0.85;;;0.85;;
65358;SDS011;52491;45.900;6.346;2023-11-22T05:02:34;0.65;;;0.65;;
65358;SDS011;52491;45.900;6.346;2023-11-22T05:04:59;0.80;;;0.80;;
65358;SDS011;52491;45.900;6.346;2023-11-22T05:07:25;1.30;;;0.80;;
65358;SDS011;52491;45.900;6.346;2023-11-22T05:09:51;0.57;;;0.57;;
65358;SDS011;52491;45.900;6.346;2023-11-22T05:12:16;0.82;;;0.80;;
65358;SDS011;52491;45.900;6.346;2023-11-22T05:14:42;0.75;;;0.73;;
65358;SDS011;52491;45.900;6.346;2023-11-22T05:17:09;0.52;;;0.52;;
65358;SDS011;52491;45.900;6.346;2023-11-22T05:19:34;0.60;;;0.60;;
65358;SDS011;52491;45.900;6.346;2023-11-22T05:22:00;1.15;;;0.60;;
65358;SDS011;52491;45.900;6.346;2023-11-22T05:24:25;1.02;;;0.90;;
65358;SDS011;52491;45.900;6.346;2023-11-22T05:26:51;0.93;;;0.80;;
65358;SDS011;52491;45.900;6.346;2023-11-22T05:29:16;3.50;;;0.68;;
65358;SDS011;52491;45.900;6.346;2023-11-22T05:31:42;3.53;;;0.57;;
65358;SDS011;52491;45.900;6.346;2023-11-22T05:34:08;4.53;;;0.60;;
65358;SDS011;52491;45.900;6.346;2023-11-22T05:36:33;2.35;;;1.02;;
65358;SDS011;52491;45.900;6.346;2023-11-22T05:38:59;4.43;;;0.90;;
65358;SDS011;52491;45.900;6.346;2023-11-22T05:41:24;3.22;;;0.82;;
65358;SDS011;52491;45.900;6.346;2023-11-22T05:43:53;1.92;;;0.93;;
65358;SDS011;52491;45.900;6.346;2023-11-22T05:46:19;1.23;;;0.93;;
65358;SDS011;52491;45.900;6.346;2023-11-22T05:48:49;3.00;;;1.10;;
65358;SDS011;52491;45.900;6.346;2023-11-22T05:51:16;2.22;;;0.80;;
65358;SDS011;52491;45.900;6.346;2023-11-22T05:53:42;1.27;;;0.77;;
65358;SDS011;52491;45.900;6.346;2023-11-22T05:56:08;9.30;;;1.80;;
65358;SDS011;52491;45.900;6.346;2023-11-22T05:58:37;3.63;;;1.00;;
65358;SDS011;52491;45.900;6.346;2023-11-22T06:01:06;2.47;;;1.30;;
65358;SDS011;52491;45.900;6.346;2023-11-22T06:03:36;2.08;;;1.40;;
65358;SDS011;52491;45.900;6.346;2023-11-22T06:06:04;5.28;;;1.73;;
65358;SDS011;52491;45.900;6.346;2023-11-22T06:08:30;11.48;;;1.90;;
65358;SDS011;52491;45.900;6.346;2023-11-22T06:10:56;4.43;;;2.20;;
65358;SDS011;52491;45.900;6.346;2023-11-22T06:13:24;2.38;;;1.80;;
65358;SDS011;52491;45.900;6.346;2023-11-22T06:15:51;4.85;;;1.77;;
65358;SDS011;52491;45.900;6.346;2023-11-22T06:18:17;1.77;;;1.58;;
65358;SDS011;52491;45.900;6.346;2023-11-22T06:20:44;6.70;;;1.67;;
65358;SDS011;52491;45.900;6.346;2023-11-22T06:23:10;2.47;;;1.73;;
65358;SDS011;52491;45.900;6.346;2023-11-22T06:25:35;3.38;;;1.67;;
65358;SDS011;52491;45.900;6.346;2023-11-22T06:28:01;4.55;;;1.17;;
65358;SDS011;52491;45.900;6.346;2023-11-22T06:30:27;2.17;;;1.50;;
65358;SDS011;52491;45.900;6.346;2023-11-22T06:32:53;2.47;;;1.83;;
65358;SDS011;52491;45.900;6.346;2023-11-22T06:35:19;5.97;;;2.17;;
65358;SDS011;52491;45.900;6.346;2023-11-22T06:37:44;5.07;;;2.35;;
65358;SDS011;52491;45.900;6.346;2023-11-22T06:40:11;3.60;;;2.33;;
65358;SDS011;52491;45.900;6.346;2023-11-22T06:42:42;3.35;;;2.10;;
65358;SDS011;52491;45.900;6.346;2023-11-22T06:45:08;3.13;;;1.83;;
65358;SDS011;52491;45.900;6.346;2023-11-22T06:47:38;3.75;;;2.55;;
65358;SDS011;52491;45.900;6.346;2023-11-22T06:50:04;4.82;;;1.90;;
65358;SDS011;52491;45.900;6.346;2023-11-22T06:52:34;4.57;;;2.35;;
65358;SDS011;52491;45.900;6.346;2023-11-22T06:55:01;4.32;;;2.00;;
65358;SDS011;52491;45.900;6.346;2023-11-22T06:57:27;2.30;;;1.85;;
65358;SDS011;52491;45.900;6.346;2023-11-22T06:59:54;3.08;;;1.83;;
65358;SDS011;52491;45.900;6.346;2023-11-22T07:02:21;5.72;;;2.35;;
65358;SDS011;52491;45.900;6.346;2023-11-22T07:04:46;3.75;;;1.80;;
65358;SDS011;52491;45.900;6.346;2023-11-22T07:07:12;5.18;;;1.90;;
65358;SDS011;52491;45.900;6.346;2023-11-22T07:09:41;6.00;;;2.03;;
65358;SDS011;52491;45.900;6.346;2023-11-22T07:12:08;3.38;;;2.50;;
65358;SDS011;52491;45.900;6.346;2023-11-22T07:14:33;4.07;;;2.50;;
65358;SDS011;52491;45.900;6.346;2023-11-22T07:16:59;3.28;;;2.25;;
65358;SDS011;52491;45.900;6.346;2023-11-22T07:19:25;3.40;;;2.30;;
65358;SDS011;52491;45.900;6.346;2023-11-22T07:21:51;3.88;;;1.83;;
65358;SDS011;52491;45.900;6.346;2023-11-22T07:24:18;2.67;;;2.30;;
65358;SDS011;52491;45.900;6.346;2023-11-22T07:26:44;2.67;;;1.75;;
65358;SDS011;52491;45.900;6.346;2023-11-22T07:29:12;2.60;;;2.15;;
65358;SDS011;52491;45.900;6.346;2023-11-22T07:31:38;2.42;;;1.98;;
65358;SDS011;52491;45.900;6.346;2023-11-22T07:34:04;3.22;;;2.15;;
65358;SDS011;52491;45.900;6.346;2023-11-22T07:36:31;2.42;;;2.22;;
65358;SDS011;52491;45.900;6.346;2023-11-22T07:38:57;2.22;;;1.75;;
65358;SDS011;52491;45.900;6.346;2023-11-22T07:41:24;2.50;;;1.90;;
65358;SDS011;52491;45.900;6.346;2023-11-22T07:43:50;3.80;;;1.70;;
65358;SDS011;52491;45.900;6.346;2023-11-22T07:46:16;2.13;;;1.88;;
65358;SDS011;52491;45.900;6.346;2023-11-22T07:48:42;3.45;;;2.03;;
65358;SDS011;52491;45.900;6.346;2023-11-22T07:51:08;2.75;;;1.90;;
65358;SDS011;52491;45.900;6.346;2023-11-22T07:53:34;2.42;;;2.00;;
65358;SDS011;52491;45.900;6.346;2023-11-22T07:56:00;2.97;;;2.58;;
65358;SDS011;52491;45.900;6.346;2023-11-22T07:58:30;2.83;;;2.17;;
65358;SDS011;52491;45.900;6.346;2023-11-22T08:00:56;4.07;;;2.42;;
65358;SDS011;52491;45.900;6.346;2023-11-22T08:03:24;2.78;;;2.25;;
65358;SDS011;52491;45.900;6.346;2023-11-22T08:05:51;2.80;;;1.85;;
65358;SDS011;52491;45.900;6.346;2023-11-22T08:08:20;3.20;;;2.00;;
65358;SDS011;52491;45.900;6.346;2023-11-22T08:10:49;3.58;;;2.13;;
65358;SDS011;52491;45.900;6.346;2023-11-22T08:13:18;3.10;;;2.33;;
65358;SDS011;52491;45.900;6.346;2023-11-22T08:15:45;2.65;;;2.17;;
65358;SDS011;52491;45.900;6.346;2023-11-22T08:18:12;2.85;;;2.13;;
65358;SDS011;52491;45.900;6.346;2023-11-22T08:20:38;3.65;;;2.50;;
65358;SDS011;52491;45.900;6.346;2023-11-22T08:23:03;3.95;;;2.33;;
65358;SDS011;52491;45.900;6.346;2023-11-22T08:25:31;4.80;;;2.08;;
65358;SDS011;52491;45.900;6.346;2023-11-22T08:27:56;3.03;;;2.15;;
65358;SDS011;52491;45.900;6.346;2023-11-22T08:30:22;2.58;;;2.05;;
65358;SDS011;52491;45.900;6.346;2023-11-22T08:32:48;2.92;;;2.20;;
65358;SDS011;52491;45.900;6.346;2023-11-22T08:35:18;2.53;;;1.60;;
65358;SDS011;52491;45.900;6.346;2023-11-22T08:37:43;2.78;;;2.15;;
65358;SDS011;52491;45.900;6.346;2023-11-22T08:40:09;1.55;;;1.45;;
65358;SDS011;52491;45.900;6.346;2023-11-22T08:42:45;2.50;;;1.88;;
65358;SDS011;52491;45.900;6.346;2023-11-22T08:45:14;3.97;;;2.45;;
65358;SDS011;52491;45.900;6.346;2023-11-22T08:47:40;2.95;;;1.65;;
65358;SDS011;52491;45.900;6.346;2023-11-22T08:50:07;1.95;;;1.63;;
65358;SDS011;52491;45.900;6.346;2023-11-22T08:52:34;4.10;;;1.98;;
65358;SDS011;52491;45.900;6.346;2023-11-22T08:54:59;2.88;;;1.83;;
65358;SDS011;52491;45.900;6.346;2023-11-22T08:57:28;2.67;;;1.60;;
65358;SDS011;52491;45.900;6.346;2023-11-22T08:59:55;2.58;;;2.00;;
65358;SDS011;52491;45.900;6.346;2023-11-22T09:02:21;7.97;;;1.92;;
65358;SDS011;52491;45.900;6.346;2023-11-22T09:04:47;2.33;;;1.77;;
65358;SDS011;52491;45.900;6.346;2023-11-22T09:07:13;2.28;;;1.80;;
65358;SDS011;52491;45.900;6.346;2023-11-22T09:09:41;3.08;;;1.90;;
65358;SDS011;52491;45.900;6.346;2023-11-22T09:12:08;2.13;;;1.60;;
65358;SDS011;52491;45.900;6.346;2023-11-22T09:14:40;2.33;;;1.88;;
65358;SDS011;52491;45.900;6.346;2023-11-22T09:17:07;2.00;;;1.60;;
65358;SDS011;52491;45.900;6.346;2023-11-22T09:19:34;6.28;;;1.67;;
65358;SDS011;52491;45.900;6.346;2023-11-22T09:22:01;1.90;;;1.25;;
65358;SDS011;52491;45.900;6.346;2023-11-22T09:24:26;2.40;;;1.60;;
65358;SDS011;52491;45.900;6.346;2023-11-22T09:26:52;1.67;;;1.40;;
65358;SDS011;52491;45.900;6.346;2023-11-22T09:29:18;1.77;;;1.60;;
65358;SDS011;52491;45.900;6.346;2023-11-22T09:31:43;2.38;;;1.80;;
65358;SDS011;52491;45.900;6.346;2023-11-22T09:34:12;2.70;;;1.95;;
65358;SDS011;52491;45.900;6.346;2023-11-22T09:36:38;2.88;;;1.48;;
65358;SDS011;52491;45.900;6.346;2023-11-22T09:39:04;1.33;;;1.23;;
65358;SDS011;52491;45.900;6.346;2023-11-22T09:41:34;1.42;;;1.27;;
65358;SDS011;52491;45.900;6.346;2023-11-22T09:44:01;2.35;;;1.38;;
65358;SDS011;52491;45.900;6.346;2023-11-22T09:46:28;1.48;;;1.35;;
65358;SDS011;52491;45.900;6.346;2023-11-22T09:48:56;2.33;;;1.65;;
65358;SDS011;52491;45.900;6.346;2023-11-22T09:51:29;1.70;;;1.52;;
65358;SDS011;52491;45.900;6.346;2023-11-22T09:53:57;2.08;;;1.35;;
65358;SDS011;52491;45.900;6.346;2023-11-22T09:56:29;1.85;;;1.40;;
65358;SDS011;52491;45.900;6.346;2023-11-22T09:58:57;1.58;;;1.40;;
65358;SDS011;52491;45.900;6.346;2023-11-22T10:01:25;1.73;;;1.35;;
65358;SDS011;52491;45.900;6.346;2023-11-22T10:04:04;2.03;;;1.58;;
65358;SDS011;52491;45.900;6.346;2023-11-22T10:06:33;2.50;;;1.80;;
65358;SDS011;52491;45.900;6.346;2023-11-22T10:09:01;1.52;;;1.42;;
65358;SDS011;52491;45.900;6.346;2023-11-22T10:11:32;1.88;;;1.63;;
65358;SDS011;52491;45.900;6.346;2023-11-22T10:13:58;1.80;;;1.35;;
65358;SDS011;52491;45.900;6.346;2023-11-22T10:16:24;2.17;;;1.23;;
65358;SDS011;52491;45.900;6.346;2023-11-22T10:18:49;1.45;;;1.20;;
65358;SDS011;52491;45.900;6.346;2023-11-22T10:21:22;1.50;;;1.27;;
65358;SDS011;52491;45.900;6.346;2023-11-22T10:23:49;1.65;;;1.20;;
65358;SDS011;52491;45.900;6.346;2023-11-22T10:26:17;1.25;;;1.10;;
65358;SDS011;52491;45.900;6.346;2023-11-22T10:28:42;1.40;;;1.10;;
65358;SDS011;52491;45.900;6.346;2023-11-22T10:31:08;1.85;;;1.50;;
65358;SDS011;52491;45.900;6.346;2023-11-22T10:33:43;1.40;;;1.10;;
65358;SDS011;52491;45.900;6.346;2023-11-22T10:36:09;2.58;;;1.33;;
65358;SDS011;52491;45.900;6.346;2023-11-22T10:38:35;1.55;;;1.38;;
65358;SDS011;52491;45.900;6.346;2023-11-22T10:41:07;1.65;;;1.15;;
65358;SDS011;52491;45.900;6.346;2023-11-22T10:43:37;1.55;;;1.10;;
65358;SDS011;52491;45.900;6.346;2023-11-22T10:46:04;1.58;;;0.95;;
65358;SDS011;52491;45.900;6.346;2023-11-22T10:48:31;1.05;;;0.90;;
65358;SDS011;52491;45.900;6.346;2023-11-22T10:51:01;3.47;;;1.10;;
65358;SDS011;52491;45.900;6.346;2023-11-22T10:53:34;1.23;;;0.90;;
65358;SDS011;52491;45.900;6.346;2023-11-22T10:56:17;1.83;;;1.25;;
65358;SDS011;52491;45.900;6.346;2023-11-22T10:58:51;1.60;;;1.05;;
65358;SDS011;52491;45.900;6.346;2023-11-22T11:01:21;1.00;;;0.77;;
65358;SDS011;52491;45.900;6.346;2023-11-22T11:04:03;1.17;;;0.90;;
65358;SDS011;52491;45.900;6.346;2023-11-22T11:06:33;1.27;;;1.00;;
65358;SDS011;52491;45.900;6.346;2023-11-22T11:09:01;1.35;;;1.13;;
65358;SDS011;52491;45.900;6.346;2023-11-22T11:11:37;1.10;;;0.98;;
65358;SDS011;52491;45.900;6.346;2023-11-22T11:14:04;1.00;;;0.90;;
65358;SDS011;52491;45.900;6.346;2023-11-22T11:16:33;1.60;;;0.93;;
65358;SDS011;52491;45.900;6.346;2023-11-22T11:19:03;2.20;;;1.10;;
65358;SDS011;52491;45.900;6.346;2023-11-22T11:21:30;2.72;;;0.93;;
65358;SDS011;52491;45.900;6.346;2023-11-22T11:23:58;1.70;;;1.27;;
65358;SDS011;52491;45.900;6.346;2023-11-22T11:26:28;2.05;;;1.10;;
65358;SDS011;52491;45.900;6.346;2023-11-22T11:28:56;1.70;;;0.82;;
65358;SDS011;52491;45.900;6.346;2023-11-22T11:31:22;1.83;;;1.05;;
65358;SDS011;52491;45.900;6.346;2023-11-22T11:38:55;0.88;;;0.80;;
65358;SDS011;52491;45.900;6.346;2023-11-22T11:41:54;3.55;;;1.15;;
65358;SDS011;52491;45.900;6.346;2023-11-22T11:44:13;2.00;;;0.70;;
65358;SDS011;52491;45.900;6.346;2023-11-22T11:46:39;1.63;;;1.20;;
65358;SDS011;52491;45.900;6.346;2023-11-22T11:49:08;1.98;;;1.25;;
65358;SDS011;52491;45.900;6.346;2023-11-22T11:51:38;21.67;;;1.20;;
65358;SDS011;52491;45.900;6.346;2023-11-22T11:54:04;1.38;;;1.10;;
65358;SDS011;52491;45.900;6.346;2023-11-22T11:56:30;1.50;;;1.00;;
65358;SDS011;52491;45.900;6.346;2023-11-22T11:58:57;1.30;;;0.73;;
65358;SDS011;52491;45.900;6.346;2023-11-22T12:01:27;2.50;;;1.00;;
65358;SDS011;52491;45.900;6.346;2023-11-22T12:03:54;1.38;;;0.73;;
65358;SDS011;52491;45.900;6.346;2023-11-22T12:06:20;2.08;;;0.73;;
65358;SDS011;52491;45.900;6.346;2023-11-22T12:08:46;2.20;;;0.85;;
65358;SDS011;52491;45.900;6.346;2023-11-22T12:11:12;2.85;;;0.90;;
65358;SDS011;52491;45.900;6.346;2023-11-22T12:13:43;3.95;;;0.93;;
65358;SDS011;52491;45.900;6.346;2023-11-22T12:16:15;1.73;;;1.08;;
65358;SDS011;52491;45.900;6.346;2023-11-22T12:18:44;0.90;;;0.70;;
65358;SDS011;52491;45.900;6.346;2023-11-22T12:21:11;1.08;;;0.85;;
65358;SDS011;52491;45.900;6.346;2023-11-22T12:23:38;0.60;;;0.60;;
65358;SDS011;52491;45.900;6.346;2023-11-22T12:26:09;2.90;;;1.20;;
65358;SDS011;52491;45.900;6.346;2023-11-22T12:28:41;1.63;;;0.80;;
65358;SDS011;52491;45.900;6.346;2023-11-22T12:31:10;0.80;;;0.70;;
65358;SDS011;52491;45.900;6.346;2023-11-22T12:33:37;1.33;;;0.90;;
65358;SDS011;52491;45.900;6.346;2023-11-22T12:36:06;1.08;;;0.70;;
65358;SDS011;52491;45.900;6.346;2023-11-22T12:38:34;0.50;;;0.50;;
65358;SDS011;52491;45.900;6.346;2023-11-22T12:41:00;5.55;;;1.13;;
65358;SDS011;52491;45.900;6.346;2023-11-22T12:43:28;0.60;;;0.50;;
65358;SDS011;52491;45.900;6.346;2023-11-22T12:46:02;0.60;;;0.60;;
65358;SDS011;52491;45.900;6.346;2023-11-22T12:48:31;1.23;;;0.52;;
65358;SDS011;52491;45.900;6.346;2023-11-22T12:50:58;2.05;;;0.68;;
65358;SDS011;52491;45.900;6.346;2023-11-22T12:53:24;1.10;;;0.75;;
65358;SDS011;52491;45.900;6.346;2023-11-22T12:55:53;1.00;;;0.32;;
65358;SDS011;52491;45.900;6.346;2023-11-22T12:58:25;0.82;;;0.60;;
65358;SDS011;52491;45.900;6.346;2023-11-22T13:00:52;0.70;;;0.63;;
65358;SDS011;52491;45.900;6.346;2023-11-22T13:03:23;0.82;;;0.55;;
65358;SDS011;52491;45.900;6.346;2023-11-22T13:05:50;0.65;;;0.65;;
65358;SDS011;52491;45.900;6.346;2023-11-22T13:08:17;1.40;;;0.75;;
65358;SDS011;52491;45.900;6.346;2023-11-22T13:10:43;1.02;;;0.52;;
65358;SDS011;52491;45.900;6.346;2023-11-22T13:13:11;0.73;;;0.60;;
65358;SDS011;52491;45.900;6.346;2023-11-22T13:15:37;0.95;;;0.60;;
65358;SDS011;52491;45.900;6.346;2023-11-22T13:18:05;1.35;;;0.55;;
65358;SDS011;52491;45.900;6.346;2023-11-22T13:20:31;0.38;;;0.35;;
65358;SDS011;52491;45.900;6.346;2023-11-22T13:22:57;2.28;;;0.50;;
65358;SDS011;52491;45.900;6.346;2023-11-22T13:25:25;3.92;;;0.47;;
65358;SDS011;52491;45.900;6.346;2023-11-22T13:27:51;1.95;;;0.60;;
65358;SDS011;52491;45.900;6.346;2023-11-22T13:30:18;1.15;;;0.57;;
65358;SDS011;52491;45.900;6.346;2023-11-22T13:32:54;0.35;;;0.35;;
65358;SDS011;52491;45.900;6.346;2023-11-22T13:35:26;0.52;;;0.40;;
65358;SDS011;52491;45.900;6.346;2023-11-22T13:37:56;2.65;;;0.52;;
65358;SDS011;52491;45.900;6.346;2023-11-22T13:40:26;3.28;;;0.68;;
65358;SDS011;52491;45.900;6.346;2023-11-22T13:42:55;0.80;;;0.43;;
65358;SDS011;52491;45.900;6.346;2023-11-22T13:45:20;0.50;;;0.50;;
65358;SDS011;52491;45.900;6.346;2023-11-22T13:47:53;0.50;;;0.50;;
65358;SDS011;52491;45.900;6.346;2023-11-22T13:50:24;1.35;;;0.57;;
65358;SDS011;52491;45.900;6.346;2023-11-22T13:52:52;1.35;;;0.52;;
65358;SDS011;52491;45.900;6.346;2023-11-22T13:55:19;0.30;;;0.30;;
65358;SDS011;52491;45.900;6.346;2023-11-22T13:57:51;0.30;;;0.28;;
65358;SDS011;52491;45.900;6.346;2023-11-22T14:00:19;0.80;;;0.52;;
65358;SDS011;52491;45.900;6.346;2023-11-22T14:02:55;0.80;;;0.40;;
65358;SDS011;52491;45.900;6.346;2023-11-22T14:05:26;6.05;;;0.77;;
65358;SDS011;52491;45.900;6.346;2023-11-22T14:07:52;0.85;;;0.55;;
65358;SDS011;52491;45.900;6.346;2023-11-22T14:10:20;0.68;;;0.57;;
65358;SDS011;52491;45.900;6.346;2023-11-22T14:12:47;1.40;;;0.50;;
65358;SDS011;52491;45.900;6.346;2023-11-22T14:15:14;0.77;;;0.50;;
65358;SDS011;52491;45.900;6.346;2023-11-22T14:17:39;1.40;;;0.68;;
65358;SDS011;52491;45.900;6.346;2023-11-22T14:22:34;0.82;;;0.50;;
65358;SDS011;52491;45.900;6.346;2023-11-22T14:25:08;1.02;;;0.70;;
65358;SDS011;52491;45.900;6.346;2023-11-22T14:27:39;0.55;;;0.45;;
65358;SDS011;52491;45.900;6.346;2023-11-22T14:30:08;0.60;;;0.60;;
65358;SDS011;52491;45.900;6.346;2023-11-22T14:32:40;0.70;;;0.55;;
65358;SDS011;52491;45.900;6.346;2023-11-22T14:35:07;2.65;;;0.77;;
65358;SDS011;52491;45.900;6.346;2023-11-22T14:37:37;0.80;;;0.50;;
65358;SDS011;52491;45.900;6.346;2023-11-22T14:40:05;0.38;;;0.38;;
65358;SDS011;52491;45.900;6.346;2023-11-22T14:42:38;1.33;;;0.52;;
65358;SDS011;52491;45.900;6.346;2023-11-22T14:45:10;0.60;;;0.43;;
65358;SDS011;52491;45.900;6.346;2023-11-22T14:47:39;1.42;;;0.73;;
65358;SDS011;52491;45.900;6.346;2023-11-22T14:50:10;2.25;;;0.80;;
65358;SDS011;52491;45.900;6.346;2023-11-22T14:52:37;0.50;;;0.50;;
65358;SDS011;52491;45.900;6.346;2023-11-22T14:55:04;1.25;;;0.70;;